Terminal Aerodrome Forecast
Issued by NWS Wichita, KS

Home | Current Version | Previous Version | Text Only | Print | Product List | Glossary On
Versions: 1 2 3 4 5 6 7 8 9 10 11 12 13 14 15 16 17 18 19
000
FTUS43 KICT 231629 AAB
TAFICT
TAF AMD
KICT 231629Z 2316/2412 16024G34KT P6SM SCT020 BKN030
      TEMPO 2316/2319 BKN016
     FM231900 17026G35KT P6SM SCT020 BKN035=

USA.gov is the U.S. government's official web portal to all federal, state and local government web resources and services.